createdAt,value
2018-04-06T00:00:08.231Z,99.9
2018-04-06T00:01:15.452Z,99.9
2018-04-06T00:02:22.666Z,99.9
2018-04-06T00:03:29.873Z,99.9
2018-04-06T00:04:37.331Z,99.9
2018-04-06T00:05:43.964Z,99.9
2018-04-06T00:06:51.402Z,99.9
2018-04-06T00:07:58.335Z,99.9
2018-04-06T00:09:05.282Z,99.9
2018-04-06T00:10:11.952Z,99.9
2018-04-06T00:11:18.612Z,99.9
2018-04-06T00:12:25.840Z,99.9
2018-04-06T00:13:33.069Z,99.9
2018-04-06T00:14:40.022Z,99.9
2018-04-06T00:15:47.182Z,99.9
2018-04-06T00:16:54.118Z,99.9
2018-04-06T00:18:01.584Z,99.9
2018-04-06T00:19:08.792Z,99.9
2018-04-06T00:20:16.012Z,99.9
2018-04-06T00:21:22.934Z,99.9
2018-04-06T00:22:30.169Z,99.9
2018-04-06T00:23:37.089Z,99.9
2018-04-06T00:24:44.287Z,99.9
2018-04-06T00:25:51.510Z,99.9
2018-04-06T00:26:58.939Z,99.9
2018-04-06T00:28:06.160Z,99.9
2018-04-06T00:29:13.362Z,99.9
2018-04-06T00:30:20.567Z,99.9
2018-04-06T00:31:27.997Z,99.9
2018-04-06T00:32:35.196Z,99.9
2018-04-06T00:33:42.604Z,99.9
2018-04-06T00:34:49.803Z,99.9
2018-04-06T00:35:57.008Z,99.9
2018-04-06T00:37:04.222Z,99.9
2018-04-06T00:38:11.439Z,99.9
2018-04-06T00:39:18.659Z,99.9
2018-04-06T00:40:25.877Z,99.9
2018-04-06T00:41:33.076Z,99.9
2018-04-06T00:42:40.009Z,99.9
2018-04-06T00:43:47.206Z,99.9
2018-04-06T00:44:54.641Z,99.9
2018-04-06T00:46:01.837Z,99.9
2018-04-06T00:47:09.043Z,99.9
2018-04-06T00:48:16.266Z,99.9
2018-04-06T00:49:23.484Z,99.9
2018-04-06T00:50:30.703Z,99.9
2018-04-06T00:51:37.648Z,99.9
2018-04-06T00:52:44.844Z,99.9
2018-04-06T00:53:52.067Z,99.9
2018-04-06T00:54:59.267Z,99.9
2018-04-06T00:56:06.426Z,99.9
2018-04-06T00:57:13.628Z,99.9
2018-04-06T00:58:21.061Z,99.9
2018-04-06T00:59:28.281Z,99.9
2018-04-06T01:00:35.694Z,99.9
2018-04-06T01:01:42.896Z,99.9
2018-04-06T01:02:50.334Z,99.9
2018-04-06T01:03:57.282Z,99.9
2018-04-06T01:05:04.510Z,99.9
2018-04-06T01:06:11.739Z,99.9
2018-04-06T01:07:18.681Z,99.9
2018-04-06T01:08:25.898Z,99.9
2018-04-06T01:09:33.331Z,99.9
2018-04-06T01:10:40.532Z,99.9
2018-04-06T01:11:47.977Z,99.9
2018-04-06T01:12:55.188Z,99.9
2018-04-06T01:14:01.863Z,99.9
2018-04-06T01:15:09.082Z,99.9
2018-04-06T01:16:16.283Z,99.9
2018-04-06T01:17:23.498Z,99.9
2018-04-06T01:18:30.722Z,99.9
2018-04-06T01:19:37.953Z,99.9
2018-04-06T01:20:45.388Z,99.9
2018-04-06T01:21:52.610Z,99.9
2018-04-06T01:23:00.038Z,99.9
2018-04-06T01:25:14.385Z,99.9
2018-04-06T01:26:21.588Z,99.9
2018-04-06T01:27:28.800Z,99.9
2018-04-06T01:28:35.728Z,99.9
2018-04-06T01:29:42.888Z,99.9
2018-04-06T01:30:49.808Z,99.9
2018-04-06T01:31:57.032Z,99.9
2018-04-06T01:33:04.258Z,99.9
2018-04-06T01:34:11.493Z,99.9
2018-04-06T01:35:18.713Z,99.9
2018-04-06T01:36:25.935Z,99.9
2018-04-06T01:37:32.880Z,99.9
2018-04-06T01:38:39.808Z,99.9
2018-04-06T01:39:46.744Z,99.9
2018-04-06T01:40:53.961Z,99.9
2018-04-06T01:42:01.164Z,99.9
2018-04-06T01:43:08.395Z,99.9
2018-04-06T01:44:15.334Z,99.9
2018-04-06T01:45:22.527Z,99.9
2018-04-06T01:46:29.755Z,99.9
2018-04-06T01:47:36.979Z,99.9
2018-04-06T01:48:44.168Z,99.9
2018-04-06T01:49:51.606Z,99.9
2018-04-06T01:50:58.541Z,99.9
2018-04-06T01:52:05.696Z,99.9
2018-04-06T01:53:12.900Z,99.9
2018-04-06T01:54:19.817Z,99.9
2018-04-06T01:55:27.262Z,99.9
2018-04-06T01:56:34.483Z,99.9
2018-04-06T01:57:41.699Z,99.9
2018-04-06T01:58:48.899Z,99.9
2018-04-06T01:59:56.153Z,99.9
2018-04-06T02:01:03.663Z,99.9
2018-04-06T02:02:10.880Z,99.9
2018-04-06T02:03:18.330Z,99.9
2018-04-06T02:04:25.537Z,99.9
2018-04-06T02:05:32.962Z,99.9
2018-04-06T02:06:40.185Z,99.9
2018-04-06T02:07:47.599Z,99.9
2018-04-06T02:08:54.804Z,99.9
2018-04-06T02:10:01.728Z,99.9
2018-04-06T02:11:08.951Z,99.9
2018-04-06T02:12:16.153Z,99.9
2018-04-06T02:13:23.106Z,99.9
2018-04-06T02:14:30.324Z,99.9
2018-04-06T02:15:37.256Z,99.9
2018-04-06T02:16:44.686Z,99.9
2018-04-06T02:17:51.893Z,99.9
2018-04-06T02:18:59.040Z,99.9
2018-04-06T02:20:06.250Z,99.9
2018-04-06T02:21:13.457Z,99.9
2018-04-06T02:22:20.682Z,99.9
2018-04-06T02:23:27.907Z,99.9
2018-04-06T02:24:35.204Z,99.9
2018-04-06T02:25:42.799Z,99.9
2018-04-06T02:26:49.751Z,99.9
2018-04-06T02:27:57.202Z,99.9
2018-04-06T02:29:04.408Z,99.9
2018-04-06T02:30:11.576Z,99.9
2018-04-06T02:31:18.779Z,99.9
2018-04-06T02:32:26.016Z,99.9
2018-04-06T02:33:33.271Z,99.9
2018-04-06T02:34:40.414Z,99.9
2018-04-06T02:35:47.616Z,99.9
2018-04-06T02:36:55.089Z,99.9
2018-04-06T02:38:02.307Z,99.9
2018-04-06T02:39:09.257Z,99.9
2018-04-06T02:40:16.509Z,99.9
2018-04-06T02:41:23.736Z,99.9
2018-04-06T02:42:30.939Z,99.9
2018-04-06T02:43:37.920Z,99.9
2018-04-06T02:44:45.429Z,99.9
2018-04-06T02:45:52.630Z,99.9
2018-04-06T02:46:59.558Z,99.9
2018-04-06T02:48:06.804Z,99.9
2018-04-06T02:49:14.011Z,99.9
2018-04-06T02:50:20.951Z,99.9
2018-04-06T02:52:35.068Z,99.9
2018-04-06T02:53:42.295Z,99.9
2018-04-06T02:54:49.528Z,99.9
2018-04-06T02:55:56.737Z,99.9
2018-04-06T02:57:04.171Z,99.9
2018-04-06T02:58:11.567Z,99.9
2018-04-06T02:59:18.771Z,99.9
2018-04-06T03:00:25.982Z,99.9
2018-04-06T03:01:33.202Z,99.9
2018-04-06T03:02:40.416Z,99.9
2018-04-06T03:03:47.620Z,99.9
2018-04-06T03:04:54.559Z,99.9
2018-04-06T03:06:01.996Z,99.9
2018-04-06T03:07:09.212Z,99.9
2018-04-06T03:08:16.435Z,99.9
2018-04-06T03:09:23.633Z,99.9
2018-04-06T03:10:30.864Z,99.9
2018-04-06T03:11:37.800Z,99.9
2018-04-06T03:12:45.024Z,99.9
2018-04-06T03:13:52.234Z,99.9
2018-04-06T03:14:59.678Z,99.9
2018-04-06T03:16:06.878Z,99.9
2018-04-06T03:17:14.101Z,99.9
2018-04-06T03:18:21.308Z,99.9
2018-04-06T03:19:28.519Z,99.9
2018-04-06T03:20:35.749Z,99.9
2018-04-06T03:21:42.961Z,99.9
2018-04-06T03:22:50.167Z,99.9
2018-04-06T03:23:57.594Z,99.9
2018-04-06T03:25:04.795Z,99.9
2018-04-06T03:26:11.960Z,99.9
2018-04-06T03:27:18.872Z,99.9
2018-04-06T03:28:26.095Z,99.9
2018-04-06T03:29:33.311Z,99.9
2018-04-06T03:30:40.269Z,99.9
2018-04-06T03:31:47.488Z,99.9
2018-04-06T03:32:54.708Z,99.9
2018-04-06T03:34:01.659Z,99.9
2018-04-06T03:35:09.102Z,99.9
2018-04-06T03:36:16.303Z,99.9
2018-04-06T03:37:23.454Z,99.9
2018-04-06T03:38:30.660Z,99.9
2018-04-06T03:39:38.086Z,99.9
2018-04-06T03:40:45.298Z,99.9
2018-04-06T03:41:52.528Z,99.9
2018-04-06T03:42:59.204Z,99.9
2018-04-06T03:44:06.121Z,99.9
2018-04-06T03:45:13.072Z,99.9
2018-04-06T03:46:20.023Z,99.9
2018-04-06T03:47:27.239Z,99.9
2018-04-06T03:48:34.178Z,99.9
2018-04-06T03:49:41.115Z,99.9
2018-04-06T03:50:48.058Z,99.9
2018-04-06T03:51:54.994Z,99.9
2018-04-06T03:53:02.221Z,99.9
2018-04-06T03:54:09.152Z,99.9
2018-04-06T03:55:16.074Z,99.9
2018-04-06T03:56:23.016Z,99.9
2018-04-06T03:57:30.219Z,99.9
2018-04-06T03:58:37.437Z,99.9
2018-04-06T03:59:44.131Z,99.9
2018-04-06T04:00:51.319Z,99.9
2018-04-06T04:01:58.480Z,99.9
2018-04-06T04:03:05.402Z,99.9
2018-04-06T04:04:12.569Z,99.9
2018-04-06T04:05:19.784Z,99.9
2018-04-06T04:06:26.984Z,99.9
2018-04-06T04:07:33.975Z,99.9
2018-04-06T04:08:40.913Z,99.9
2018-04-06T04:09:48.110Z,99.9
2018-04-06T04:10:55.540Z,99.9
2018-04-06T04:12:02.740Z,99.9
2018-04-06T04:13:09.888Z,99.9
2018-04-06T04:14:16.812Z,99.9
2018-04-06T04:15:23.694Z,99.9
2018-04-06T04:16:30.348Z,99.9
2018-04-06T04:17:37.004Z,99.9
2018-04-06T04:18:43.936Z,99.9
2018-04-06T04:19:50.879Z,99.9
2018-04-06T04:20:58.110Z,99.9
2018-04-06T04:22:05.315Z,99.9
2018-04-06T04:23:12.539Z,99.9
2018-04-06T04:24:19.780Z,99.9
2018-04-06T04:25:26.987Z,99.9
2018-04-06T04:26:34.189Z,99.9
2018-04-06T04:27:41.393Z,99.9
2018-04-06T04:28:48.325Z,99.9
2018-04-06T04:29:55.255Z,99.9
2018-04-06T22:00:06.334Z,37.3
2018-04-06T22:01:13.264Z,38.2
2018-04-06T22:02:20.462Z,39.5
2018-04-06T22:03:27.662Z,42
2018-04-06T22:04:34.878Z,42.3
2018-04-06T22:05:41.820Z,41.5
2018-04-06T22:06:49.035Z,40.8
2018-04-06T22:07:56.254Z,41.5
2018-04-06T22:09:03.460Z,37.3
2018-04-06T22:10:10.665Z,40.3
2018-04-06T22:11:17.865Z,41
2018-04-06T22:12:25.083Z,43.6
2018-04-06T22:13:32.016Z,43.4
2018-04-06T22:14:38.953Z,45
2018-04-06T22:15:46.165Z,43.4
2018-04-06T22:16:53.126Z,45.2
2018-04-06T22:18:00.333Z,42.8
2018-04-06T22:19:07.778Z,43.4
2018-04-06T22:20:14.972Z,44.1
2018-04-06T22:21:21.922Z,44.1
2018-04-06T22:22:29.128Z,43.6
2018-04-06T22:23:36.044Z,46.1
2018-04-06T22:24:42.975Z,49.5
2018-04-06T22:25:50.179Z,45.6
2018-04-06T22:26:57.385Z,44.7
2018-04-06T22:28:04.321Z,47
2018-04-06T22:29:11.531Z,46.2
2018-04-06T22:30:18.467Z,44.3
2018-04-06T22:31:25.676Z,44
2018-04-06T22:32:32.890Z,44.7
2018-04-06T22:33:40.109Z,45.6
2018-04-06T22:35:59.952Z,46.6
2018-04-06T22:37:06.941Z,42
2018-04-06T22:38:13.875Z,43.7
2018-04-06T22:39:20.810Z,45.4
2018-04-06T22:40:28.006Z,46.8
2018-04-06T22:41:34.929Z,45.7
2018-04-06T22:42:41.856Z,46.6
2018-04-06T22:43:49.076Z,45.8
2018-04-06T22:44:56.288Z,48.2
2018-04-06T22:46:03.506Z,47
2018-04-06T22:47:10.428Z,43.5
2018-04-06T22:48:17.359Z,46.5
2018-04-06T22:49:24.565Z,44.7
2018-04-06T22:50:31.244Z,45.2
2018-04-06T22:51:38.454Z,40.6
2018-04-06T22:52:45.386Z,39.8
2018-04-06T22:53:52.597Z,38
2018-04-06T22:54:59.798Z,39.8
2018-04-06T22:56:06.742Z,37.3
2018-04-06T22:57:13.684Z,41.2
2018-04-06T22:58:20.610Z,41.6
2018-04-06T22:59:27.586Z,38.9
2018-04-06T23:00:34.790Z,42.6
2018-04-06T23:01:41.989Z,44.8
2018-04-06T23:02:48.931Z,45.7
2018-04-06T23:03:56.111Z,45.2
2018-04-06T23:05:03.310Z,43
2018-04-06T23:06:10.231Z,45.6
2018-04-06T23:07:17.152Z,43
2018-04-06T23:08:24.092Z,43
2018-04-06T23:09:31.293Z,43.3
2018-04-06T23:10:38.516Z,42.9
2018-04-06T23:11:45.180Z,44.6
2018-04-06T23:12:52.131Z,45.9
2018-04-06T23:13:59.336Z,45.6
2018-04-06T23:15:06.283Z,42.7
2018-04-06T23:16:13.207Z,44.7
2018-04-06T23:17:20.420Z,45.4
2018-04-06T23:18:27.083Z,42.8
2018-04-06T23:19:34.010Z,44.7
2018-04-06T23:20:40.971Z,42.9
2018-04-06T23:21:48.183Z,44.1
2018-04-06T23:22:55.389Z,43.7
2018-04-06T23:24:02.332Z,43.2
2018-04-06T23:25:09.261Z,44.3
2018-04-06T23:26:16.213Z,48.4
2018-04-06T23:27:23.144Z,48
2018-04-06T23:28:30.094Z,49
2018-04-06T23:29:37.295Z,49.8
2018-04-06T23:30:44.506Z,46.3
2018-04-06T23:31:51.444Z,47.1
2018-04-06T23:32:58.113Z,47.8
2018-04-06T23:34:04.773Z,49
2018-04-06T23:35:11.723Z,46.1
2018-04-06T23:36:18.649Z,49.6
2018-04-06T23:37:25.597Z,45
2018-04-06T23:38:32.804Z,46.1
2018-04-06T23:39:40.005Z,45
2018-04-06T23:40:47.208Z,45.9
2018-04-06T23:41:54.133Z,48
2018-04-06T23:43:01.336Z,46.9
2018-04-06T23:44:08.555Z,43.9
2018-04-06T23:45:15.762Z,46.6
2018-04-06T23:46:22.968Z,46
2018-04-06T23:47:30.183Z,47.5
2018-04-06T23:48:37.386Z,49.4
2018-04-06T23:49:44.590Z,52.3
2018-04-06T23:50:51.787Z,47.2
2018-04-06T23:51:58.718Z,47.6
2018-04-06T23:53:05.932Z,48.8
2018-04-06T23:54:13.136Z,52.4
2018-04-06T23:55:19.779Z,51.2
2018-04-06T23:56:26.991Z,47.8
2018-04-06T23:57:34.187Z,49.7
2018-04-06T23:58:41.385Z,48.5
2018-04-06T23:59:48.312Z,45.8
